Time;durP1;ratioP1;P1;durP2;ratioP2;P2;SDS_P1;SDS_P2;PMS_P1;PMS_P2;Temp;Humidity;BMP_temperature;BMP_pressure;BME280_temperature;BME280_humidity;BME280_pressure;Samples;Min_cycle;Max_cycle;Signal;HPM_P1;HPM_P2
2022/08/06 00:00:58;;;;;;;;;;;;;;;14.97;52.58;102462.41;5059951;28;19920;-88
2022/08/06 00:03:23;;;;;;;;;;;;;;;15.00;51.70;102461.44;5083271;28;20383;-88
2022/08/06 00:05:48;;;;;;;;;;;;;;;15.04;51.95;102463.06;5078845;28;19922;-88
2022/08/06 00:08:14;;;;;;;;;;;;;;;15.10;51.77;102470.84;5083560;28;19925;-88
2022/08/06 00:10:39;;;;;;;;;;;;;;;14.98;53.27;102474.81;5081806;28;19924;-87
2022/08/06 00:13:04;;;;;;;;;;;;;;;14.87;52.36;102481.38;5079389;28;19924;-88
2022/08/06 00:15:29;;;;;;;;;;;;;;;14.78;53.13;102475.44;5085093;28;19927;-88
2022/08/06 00:17:55;;;;;;;;;;;;;;;14.63;53.09;102473.25;5063576;28;20058;-88
2022/08/06 00:20:20;;;;;;;;;;;;;;;14.64;52.92;102477.69;5084811;28;19924;-89
2022/08/06 00:22:45;;;;;;;;;;;;;;;14.70;52.53;102480.13;5081642;28;19923;-88
2022/08/06 00:25:10;;;;;;;;;;;;;;;14.75;52.60;102478.19;5079820;28;19999;-87
2022/08/06 00:27:36;;;;;;;;;;;;;;;14.72;53.13;102477.41;5066839;28;20287;-88
2022/08/06 00:30:02;;;;;;;;;;;;;;;14.70;52.62;102477.47;5057101;28;19913;-88
2022/08/06 00:32:28;;;;;;;;;;;;;;;14.67;52.98;102480.22;5058173;28;19927;-89
2022/08/06 00:34:53;;;;;;;;;;;;;;;14.64;53.57;102483.00;5086753;28;20499;-89
2022/08/06 00:37:18;;;;;;;;;;;;;;;14.61;52.68;102484.88;5078209;28;19916;-89
2022/08/06 00:39:43;;;;;;;;;;;;;;;14.51;53.00;102495.81;5082223;28;19985;-88
2022/08/06 00:42:08;;;;;;;;;;;;;;;14.52;53.08;102488.69;5081987;28;20019;-89
2022/08/06 00:44:34;;;;;;;;;;;;;;;14.52;52.88;102478.91;5079774;28;19924;-89
2022/08/06 00:46:59;;;;;;;;;;;;;;;14.52;53.16;102494.00;5082329;28;19957;-88
2022/08/06 00:49:25;;;;;;;;;;;;;;;14.43;53.18;102494.25;5084926;28;19981;-88
2022/08/06 00:51:50;;;;;;;;;;;;;;;14.27;55.16;102489.38;5063875;28;20415;-88
2022/08/06 00:54:15;;;;;;;;;;;;;;;14.23;54.39;102503.69;5082789;28;20015;-89
2022/08/06 00:56:40;;;;;;;;;;;;;;;14.21;53.60;102491.34;5079679;28;20007;-88
2022/08/06 00:59:06;;;;;;;;;;;;;;;14.16;53.99;102501.25;5058029;28;19916;-89
2022/08/06 01:01:31;;;;;;;;;;;;;;;14.15;54.00;102505.69;5077217;28;20015;-88
2022/08/06 01:03:56;;;;;;;;;;;;;;;14.14;53.84;102508.41;5085245;28;20260;-88
2022/08/06 01:06:22;;;;;;;;;;;;;;;14.08;54.51;102509.44;5083985;28;19920;-88
2022/08/06 01:08:47;;;;;;;;;;;;;;;13.74;55.37;102514.81;5075320;28;19916;-89
2022/08/06 01:11:12;;;;;;;;;;;;;;;13.50;55.38;102516.31;5081449;28;20344;-89
2022/08/06 01:13:37;;;;;;;;;;;;;;;13.46;55.29;102522.63;5080706;28;19920;-88
2022/08/06 01:16:07;;;;;;;;;;;;;;;13.42;56.75;102528.91;5074295;28;20015;-88
2022/08/06 01:18:35;;;;;;;;;;;;;;;13.23;56.38;102536.47;5061775;28;20363;-88
2022/08/06 01:21:19;;;;;;;;;;;;;;;13.27;56.14;102535.47;5061352;28;20500;-89
2022/08/06 01:23:52;;;;;;;;;;;;;;;13.36;56.08;102529.94;5077003;28;19916;-88
2022/08/06 01:26:36;;;;;;;;;;;;;;;13.49;55.48;102538.50;5078047;28;20339;-88
2022/08/06 01:29:05;;;;;;;;;;;;;;;13.51;55.22;102526.03;5078155;28;19962;-88
2022/08/06 01:31:41;;;;;;;;;;;;;;;13.57;55.30;102540.94;5075080;28;20386;-89
2022/08/06 01:34:13;;;;;;;;;;;;;;;13.42;55.43;102539.53;5080318;28;20686;-88
2022/08/06 01:36:41;;;;;;;;;;;;;;;13.41;54.87;102536.03;5080095;28;20298;-88
2022/08/06 01:39:07;;;;;;;;;;;;;;;13.44;55.41;102537.75;5077176;28;19919;-87
2022/08/06 01:41:39;;;;;;;;;;;;;;;13.52;55.17;102541.06;5077500;28;20382;-88
2022/08/06 01:44:09;;;;;;;;;;;;;;;13.58;55.07;102534.75;5077757;28;19923;-88
2022/08/06 01:46:40;;;;;;;;;;;;;;;13.58;55.00;102535.59;5079538;28;20413;-89
2022/08/06 01:49:08;;;;;;;;;;;;;;;13.55;55.20;102530.34;5061811;28;19951;-88
2022/08/06 01:51:34;;;;;;;;;;;;;;;13.53;55.38;102527.75;5081931;28;20367;-88
2022/08/06 01:54:00;;;;;;;;;;;;;;;13.48;55.27;102539.41;5081106;28;19935;-89
2022/08/06 01:56:26;;;;;;;;;;;;;;;13.52;55.02;102535.75;5078521;28;19919;-88
2022/08/06 01:58:52;;;;;;;;;;;;;;;13.52;55.57;102533.09;5075156;28;20349;-88
2022/08/06 02:01:18;;;;;;;;;;;;;;;13.52;54.58;102535.75;5082921;28;20518;-87
2022/08/06 02:03:45;;;;;;;;;;;;;;;13.50;57.13;102541.09;5074113;28;20363;-88
2022/08/06 02:06:14;;;;;;;;;;;;;;;13.20;60.00;102532.09;5077327;28;19959;-88
2022/08/06 02:08:40;;;;;;;;;;;;;;;12.92;58.44;102526.56;5076552;28;19927;-88
2022/08/06 02:11:06;;;;;;;;;;;;;;;12.66;62.28;102537.72;5076798;28;19927;-89
2022/08/06 02:13:32;;;;;;;;;;;;;;;12.45;63.52;102539.06;5078011;28;20047;-88
2022/08/06 02:16:00;;;;;;;;;;;;;;;12.36;61.34;102535.75;5077722;28;19924;-88
2022/08/06 02:18:29;;;;;;;;;;;;;;;12.38;58.47;102533.91;5078719;28;19989;-88
2022/08/06 02:20:57;;;;;;;;;;;;;;;12.51;58.34;102540.72;5053599;28;19930;-88
2022/08/06 02:23:23;;;;;;;;;;;;;;;12.62;58.18;102543.13;5081156;28;19913;-88
2022/08/06 02:25:51;;;;;;;;;;;;;;;12.68;57.45;102543.00;5071569;28;21284;-88
2022/08/06 02:28:18;;;;;;;;;;;;;;;12.76;56.84;102549.88;5060568;28;20278;-88
2022/08/06 02:30:45;;;;;;;;;;;;;;;12.75;56.98;102549.94;5081469;28;19924;-88
2022/08/06 02:33:11;;;;;;;;;;;;;;;12.68;57.09;102543.91;5081569;28;19935;-88
2022/08/06 02:35:42;;;;;;;;;;;;;;;12.75;57.26;102548.16;5078829;28;19916;-88
2022/08/06 02:38:19;;;;;;;;;;;;;;;12.85;56.83;102548.81;5079069;28;20383;-88
2022/08/06 02:40:49;;;;;;;;;;;;;;;12.88;56.56;102542.59;5073982;28;19916;-88
2022/08/06 02:43:20;;;;;;;;;;;;;;;12.88;56.63;102539.94;5083306;28;19919;-88
2022/08/06 02:45:48;;;;;;;;;;;;;;;12.88;58.03;102537.28;5062874;28;20505;-88
2022/08/06 02:48:24;;;;;;;;;;;;;;;12.87;56.72;102541.72;5083729;28;20294;-87
2022/08/06 02:50:51;;;;;;;;;;;;;;;12.84;56.81;102543.56;5077299;28;20007;-88
2022/08/06 02:53:18;;;;;;;;;;;;;;;12.85;56.71;102547.94;5084977;28;20363;-88
2022/08/06 02:55:45;;;;;;;;;;;;;;;12.85;56.72;102546.16;5065763;28;20440;-88
2022/08/06 02:58:13;;;;;;;;;;;;;;;12.87;57.02;102548.78;5082322;28;19920;-87
2022/08/06 03:00:40;;;;;;;;;;;;;;;12.88;57.21;102550.53;5063311;28;19917;-88
2022/08/06 03:03:07;;;;;;;;;;;;;;;12.90;56.61;102540.75;5079581;28;19943;-88
2022/08/06 03:05:33;;;;;;;;;;;;;;;12.90;56.98;102546.06;5082495;28;20333;-88
2022/08/06 03:08:00;;;;;;;;;;;;;;;12.87;56.18;102546.13;5080250;28;20426;-87
2022/08/06 03:10:28;;;;;;;;;;;;;;;12.82;56.88;102548.88;5083628;28;20348;-87
2022/08/06 03:12:54;;;;;;;;;;;;;;;12.75;56.93;102558.78;5074074;28;20442;-88
2022/08/06 03:15:20;;;;;;;;;;;;;;;12.68;57.22;102546.56;5078775;28;20383;-88
2022/08/06 03:17:46;;;;;;;;;;;;;;;12.67;56.93;102551.88;5058974;28;19935;-87
2022/08/06 03:20:14;;;;;;;;;;;;;;;12.62;57.54;102548.44;5079597;28;19974;-88
2022/08/06 03:22:40;;;;;;;;;;;;;;;12.61;57.16;102552.00;5074134;28;20007;-88
2022/08/06 03:25:07;;;;;;;;;;;;;;;12.57;57.27;102552.97;5077465;28;19951;-88
2022/08/06 03:27:33;;;;;;;;;;;;;;;12.52;57.62;102551.28;5061262;28;19939;-88
2022/08/06 03:29:59;;;;;;;;;;;;;;;12.48;57.67;102549.59;5060593;28;19916;-88
2022/08/06 03:32:25;;;;;;;;;;;;;;;12.48;57.82;102554.91;5074490;28;19927;-88
2022/08/06 03:34:51;;;;;;;;;;;;;;;12.47;57.95;102561.13;5080926;28;19916;-88
2022/08/06 03:37:20;;;;;;;;;;;;;;;12.45;57.50;102560.31;5076557;28;19920;-88
2022/08/06 03:39:47;;;;;;;;;;;;;;;12.42;57.99;102555.03;5077594;28;20023;-88
2022/08/06 03:42:13;;;;;;;;;;;;;;;12.32;58.42;102561.44;5073382;28;20436;-88
2022/08/06 03:44:38;;;;;;;;;;;;;;;12.10;59.89;102562.75;5062170;28;19924;-88
2022/08/06 03:47:12;;;;;;;;;;;;;;;11.98;58.45;102567.41;5076296;28;19921;-88
2022/08/06 03:50:04;;;;;;;;;;;;;;;11.84;59.66;102566.75;5054068;28;19920;-87
2022/08/06 03:52:31;;;;;;;;;;;;;;;11.78;59.29;102560.66;5053703;28;20011;-88
2022/08/06 03:54:58;;;;;;;;;;;;;;;11.72;59.68;102578.41;5080152;28;19939;-88
2022/08/06 03:57:25;;;;;;;;;;;;;;;11.68;60.40;102576.72;5080062;28;20282;-87
2022/08/06 03:59:52;;;;;;;;;;;;;;;11.55;61.46;102583.13;5079442;28;19939;-88
2022/08/06 04:02:18;;;;;;;;;;;;;;;11.53;60.46;102587.56;5082391;28;20271;-87
2022/08/06 04:04:44;;;;;;;;;;;;;;;11.53;59.77;102589.34;5070236;28;19926;-87
2022/08/06 04:07:12;;;;;;;;;;;;;;;11.57;59.58;102593.72;5082299;28;19964;-87
2022/08/06 04:09:37;;;;;;;;;;;;;;;11.67;59.74;102593.53;5077391;28;20275;-88
2022/08/06 04:12:03;;;;;;;;;;;;;;;11.76;58.92;102581.91;5080877;28;19995;-88
2022/08/06 04:14:29;;;;;;;;;;;;;;;11.72;59.85;102594.31;5080984;28;19916;-88
2022/08/06 04:16:55;;;;;;;;;;;;;;;11.70;59.44;102597.88;5078469;28;19927;-87
2022/08/06 04:19:21;;;;;;;;;;;;;;;11.69;61.31;102597.00;5074470;28;20256;-87
2022/08/06 04:21:46;;;;;;;;;;;;;;;11.56;60.94;102598.09;5079610;28;19916;-87
2022/08/06 04:24:12;;;;;;;;;;;;;;;11.42;61.95;102598.34;5081428;28;19927;-88
2022/08/06 04:26:38;;;;;;;;;;;;;;;11.31;61.73;102596.75;5083199;28;19931;-87
2022/08/06 04:29:05;;;;;;;;;;;;;;;11.24;61.47;102611.88;5058232;28;19916;-87
2022/08/06 04:31:35;;;;;;;;;;;;;;;11.22;60.40;102614.50;5074324;28;19950;-87
2022/08/06 04:34:01;;;;;;;;;;;;;;;11.25;60.70;102610.97;5079357;28;19928;-88
2022/08/06 04:36:27;;;;;;;;;;;;;;;11.38;60.12;102609.88;5080731;28;20387;-90
2022/08/06 04:38:52;;;;;;;;;;;;;;;11.44;60.28;102604.47;5079110;28;20003;-90
2022/08/06 04:41:17;;;;;;;;;;;;;;;11.56;60.20;102611.34;5081197;28;20206;-90
2022/08/06 04:43:43;;;;;;;;;;;;;;;11.72;59.58;102610.22;5077257;28;20299;-90
2022/08/06 04:46:09;;;;;;;;;;;;;;;11.86;58.91;102611.78;5075599;28;19916;-90
2022/08/06 04:48:34;;;;;;;;;;;;;;;11.92;59.39;102620.50;5076470;28;20425;-90
2022/08/06 04:51:02;;;;;;;;;;;;;;;11.98;58.87;102622.16;5084881;28;19957;-90
2022/08/06 04:53:27;;;;;;;;;;;;;;;12.02;59.07;102621.22;5056969;28;20396;-90
2022/08/06 04:55:52;;;;;;;;;;;;;;;12.07;59.42;102614.03;5084197;28;19923;-90
2022/08/06 04:58:18;;;;;;;;;;;;;;;12.13;58.42;102629.00;5085601;28;19924;-91
2022/08/06 05:00:46;;;;;;;;;;;;;;;12.22;59.67;102627.06;5077948;28;19916;-90
2022/08/06 05:03:12;;;;;;;;;;;;;;;12.24;59.19;102627.88;5055906;28;19920;-90
2022/08/06 05:05:39;;;;;;;;;;;;;;;12.24;59.00;102629.66;5078706;28;20046;-90
2022/08/06 05:08:06;;;;;;;;;;;;;;;12.30;58.22;102628.66;5064270;28;19924;-90
2022/08/06 05:10:41;;;;;;;;;;;;;;;12.29;59.00;102629.59;5057437;28;20302;-90
2022/08/06 05:13:07;;;;;;;;;;;;;;;12.39;59.03;102626.72;5058309;28;19921;-90
2022/08/06 05:15:34;;;;;;;;;;;;;;;12.49;58.77;102632.72;5059825;28;20052;-89
2022/08/06 05:17:59;;;;;;;;;;;;;;;12.44;60.03;102634.59;5058064;28;19990;-90
2022/08/06 05:20:26;;;;;;;;;;;;;;;12.38;63.09;102635.59;5081094;28;20519;-90
2022/08/06 05:22:53;;;;;;;;;;;;;;;12.23;62.40;102641.19;5082610;28;19957;-90
2022/08/06 05:25:19;;;;;;;;;;;;;;;12.21;60.92;102642.97;5083109;28;20573;-89
2022/08/06 05:27:44;;;;;;;;;;;;;;;12.29;61.71;102645.50;5063522;28;20015;-90
2022/08/06 05:30:09;;;;;;;;;;;;;;;12.35;60.94;102648.03;5082264;28;19927;-89
2022/08/06 05:32:45;;;;;;;;;;;;;;;12.39;61.83;102650.59;5060859;28;20276;-90
2022/08/06 05:35:14;;;;;;;;;;;;;;;12.41;63.59;102648.81;5091656;28;19939;-89
2022/08/06 05:37:41;;;;;;;;;;;;;;;12.56;62.71;102655.59;5084666;28;20307;-90
2022/08/06 05:40:07;;;;;;;;;;;;;;;12.68;64.76;102658.00;5080602;28;19935;-90
2022/08/06 05:42:32;;;;;;;;;;;;;;;12.77;62.76;102663.09;5084271;28;19920;-90
2022/08/06 05:44:57;;;;;;;;;;;;;;;12.92;63.07;102656.63;5066931;28;20010;-90
2022/08/06 05:47:31;;;;;;;;;;;;;;;13.10;61.95;102657.13;5064818;28;20342;-90
2022/08/06 05:50:02;;;;;;;;;;;;;;;13.28;61.92;102656.75;5077376;28;19932;-89
2022/08/06 05:52:53;;;;;;;;;;;;;;;13.43;62.10;102656.44;5058195;28;19920;-87
2022/08/06 05:55:21;;;;;;;;;;;;;;;13.62;60.96;102654.22;5075399;28;20356;-89
2022/08/06 05:58:04;;;;;;;;;;;;;;;13.72;58.62;102663.72;5077286;28;19927;-87
2022/08/06 06:00:35;;;;;;;;;;;;;;;13.87;61.75;102653.59;5059681;28;20375;-87
2022/08/06 06:03:04;;;;;;;;;;;;;;;13.98;61.05;102662.19;5063071;28;19916;-87
2022/08/06 06:05:30;;;;;;;;;;;;;;;14.08;59.52;102658.38;5079960;28;20232;-87
2022/08/06 06:07:55;;;;;;;;;;;;;;;14.18;61.72;102672.34;5055821;28;19916;-87
2022/08/06 06:10:24;;;;;;;;;;;;;;;14.27;61.32;102678.28;5081446;28;20011;-87
2022/08/06 06:12:52;;;;;;;;;;;;;;;14.36;60.19;102677.16;5066158;28;19920;-87
2022/08/06 06:15:18;;;;;;;;;;;;;;;14.45;60.08;102668.03;5081741;28;20015;-86
2022/08/06 06:17:46;;;;;;;;;;;;;;;14.53;60.17;102669.63;5061003;28;20387;-87
2022/08/06 06:20:16;;;;;;;;;;;;;;;14.64;60.05;102677.31;5076098;28;20327;-87
2022/08/06 06:22:59;;;;;;;;;;;;;;;14.71;58.53;102670.03;5077735;28;19931;-87
2022/08/06 06:25:30;;;;;;;;;;;;;;;14.77;58.33;102670.72;5077032;28;20371;-90
2022/08/06 06:28:04;;;;;;;;;;;;;;;14.87;58.86;102668.66;5080838;28;19920;-87
2022/08/06 06:30:46;;;;;;;;;;;;;;;14.92;57.44;102669.44;5076347;28;19956;-87
2022/08/06 06:33:17;;;;;;;;;;;;;;;15.02;59.73;102670.91;5082284;28;19924;-87
2022/08/06 06:35:53;;;;;;;;;;;;;;;15.11;60.46;102672.41;5055214;28;19924;-87
2022/08/06 06:38:33;;;;;;;;;;;;;;;15.23;59.91;102673.81;5085981;28;20440;-87
2022/08/06 06:41:02;;;;;;;;;;;;;;;15.33;59.47;102664.63;5075566;28;19932;-87
2022/08/06 06:43:37;;;;;;;;;;;;;;;15.42;58.72;102680.34;5085604;28;19966;-87
2022/08/06 06:46:04;;;;;;;;;;;;;;;15.52;57.88;102686.25;5077328;28;20012;-87
2022/08/06 06:48:37;;;;;;;;;;;;;;;15.60;57.92;102678.88;5079165;28;19948;-86
2022/08/06 06:51:05;;;;;;;;;;;;;;;15.73;58.89;102685.63;5082475;28;19990;-87
2022/08/06 06:53:32;;;;;;;;;;;;;;;15.85;59.09;102686.13;5075525;28;20401;-87
2022/08/06 06:55:59;;;;;;;;;;;;;;;16.01;59.93;102680.25;5082121;28;20007;-87
2022/08/06 06:58:44;;;;;;;;;;;;;;;16.22;60.02;102685.75;5080443;28;19916;-87
2022/08/06 07:01:10;;;;;;;;;;;;;;;16.45;59.66;102687.63;5057083;28;19982;-87
2022/08/06 07:03:37;;;;;;;;;;;;;;;16.52;56.33;102690.03;5085913;28;19923;-87
2022/08/06 07:06:05;;;;;;;;;;;;;;;16.61;57.98;102685.31;5078976;28;20371;-87
2022/08/06 07:08:31;;;;;;;;;;;;;;;16.74;57.28;102687.50;5076075;28;19999;-87
2022/08/06 07:10:57;;;;;;;;;;;;;;;16.85;56.50;102692.47;5063374;28;19920;-87
2022/08/06 07:13:23;;;;;;;;;;;;;;;16.93;57.57;102689.50;5085975;28;20310;-87
2022/08/06 07:15:49;;;;;;;;;;;;;;;17.08;58.24;102696.94;5080303;28;19920;-87
2022/08/06 07:18:15;;;;;;;;;;;;;;;17.35;58.61;102692.34;5082152;28;19916;-87
2022/08/06 07:20:42;;;;;;;;;;;;;;;17.64;59.10;102698.34;5080383;28;20167;-87
2022/08/06 07:23:09;;;;;;;;;;;;;;;17.85;55.87;102690.31;5076314;28;20034;-87
2022/08/06 07:25:37;;;;;;;;;;;;;;;17.85;55.42;102692.13;5060113;28;19916;-88
2022/08/06 07:28:03;;;;;;;;;;;;;;;17.93;57.08;102697.19;5085618;28;20006;-87
2022/08/06 07:30:29;;;;;;;;;;;;;;;18.22;56.89;102703.97;5077103;28;20015;-88
2022/08/06 07:32:54;;;;;;;;;;;;;;;18.50;57.02;102707.19;5077640;28;20001;-88
2022/08/06 07:35:20;;;;;;;;;;;;;;;18.75;55.89;102709.72;5082359;28;19923;-88
2022/08/06 07:37:50;;;;;;;;;;;;;;;18.89;55.93;102702.88;5081408;28;20461;-87
2022/08/06 07:40:20;;;;;;;;;;;;;;;18.89;54.64;102710.91;5085748;28;20299;-87
2022/08/06 07:42:47;;;;;;;;;;;;;;;18.93;54.09;102716.06;5082426;28;19954;-88
2022/08/06 07:45:13;;;;;;;;;;;;;;;19.20;52.93;102715.72;5068150;28;19955;-87
2022/08/06 07:47:41;;;;;;;;;;;;;;;19.69;53.74;102711.59;5086513;28;19970;-87
2022/08/06 07:50:08;;;;;;;;;;;;;;;20.23;52.48;102714.28;5065417;28;20371;-87
2022/08/06 07:52:34;;;;;;;;;;;;;;;20.77;50.11;102715.09;5079468;28;20045;-88
2022/08/06 07:54:59;;;;;;;;;;;;;;;21.34;50.29;102708.38;5066529;28;20409;-87
2022/08/06 07:57:25;;;;;;;;;;;;;;;21.82;48.53;102717.31;5079453;28;19921;-88
2022/08/06 07:59:50;;;;;;;;;;;;;;;22.02;47.92;102720.69;5077158;28;19923;-88
2022/08/06 08:02:19;;;;;;;;;;;;;;;22.18;46.44;102723.34;5064165;28;19923;-88
2022/08/06 08:07:31;;;;;;;;;;;;;;;23.02;46.02;102726.34;5083459;28;19972;-88
2022/08/06 08:09:58;;;;;;;;;;;;;;;23.37;45.26;102730.38;5064940;28;19996;-88
2022/08/06 08:12:23;;;;;;;;;;;;;;;23.59;44.34;102726.25;5064468;28;19916;-89
2022/08/06 08:14:49;;;;;;;;;;;;;;;24.18;43.79;102727.72;5083147;28;19920;-88
2022/08/06 08:17:15;;;;;;;;;;;;;;;24.47;43.76;102724.03;5087707;28;19947;-89
2022/08/06 08:19:41;;;;;;;;;;;;;;;24.80;43.49;102721.66;5082664;28;19966;-89
2022/08/06 08:22:10;;;;;;;;;;;;;;;25.13;43.18;102728.38;5065863;28;19979;-89
2022/08/06 08:24:36;;;;;;;;;;;;;;;25.40;41.84;102729.06;5065347;28;19973;-88
2022/08/06 08:27:03;;;;;;;;;;;;;;;25.85;41.73;102725.81;5085382;28;19924;-89
2022/08/06 08:29:29;;;;;;;;;;;;;;;26.05;39.37;102727.88;5072137;28;20337;-89
2022/08/06 08:31:54;;;;;;;;;;;;;;;25.64;39.37;102728.25;5064267;28;19920;-89
2022/08/06 08:34:20;;;;;;;;;;;;;;;24.96;38.10;102729.56;5085613;28;19920;-88
2022/08/06 08:36:45;;;;;;;;;;;;;;;25.18;41.59;102723.47;5088041;28;19916;-89
2022/08/06 08:39:10;;;;;;;;;;;;;;;25.82;39.03;102726.03;5080567;28;19935;-89
2022/08/06 08:41:54;;;;;;;;;;;;;;;26.39;37.79;102734.31;5085726;28;19916;-90
2022/08/06 08:44:21;;;;;;;;;;;;;;;25.57;39.72;102729.69;5090030;28;20212;-89
2022/08/06 08:46:47;;;;;;;;;;;;;;;26.06;38.58;102734.16;5066965;28;19982;-89
2022/08/06 08:49:19;;;;;;;;;;;;;;;26.79;37.14;102728.50;5081176;28;19963;-90
2022/08/06 08:51:46;;;;;;;;;;;;;;;26.84;34.77;102730.84;5083907;28;19916;-90
2022/08/06 08:54:13;;;;;;;;;;;;;;;25.84;36.08;102730.38;5076928;28;19981;-89
2022/08/06 08:56:38;;;;;;;;;;;;;;;25.57;39.43;102730.56;5064293;28;19923;-89
2022/08/06 08:59:04;;;;;;;;;;;;;;;25.08;38.08;102736.81;5078620;28;20357;-89
2022/08/06 09:01:29;;;;;;;;;;;;;;;25.29;39.25;102736.28;5083772;28;19922;-87
2022/08/06 09:03:54;;;;;;;;;;;;;;;26.40;35.57;102733.31;5089458;28;20020;-87
2022/08/06 09:06:21;;;;;;;;;;;;;;;27.35;34.74;102733.97;5064380;28;19923;-87
2022/08/06 09:08:47;;;;;;;;;;;;;;;28.13;32.68;102727.47;5079868;28;19931;-87
2022/08/06 09:11:13;;;;;;;;;;;;;;;28.68;31.14;102740.94;5084099;28;19924;-88
2022/08/06 09:13:38;;;;;;;;;;;;;;;29.14;30.12;102736.88;5082037;28;19924;-88
2022/08/06 09:16:04;;;;;;;;;;;;;;;29.61;29.52;102743.53;5087490;28;20170;-88
2022/08/06 09:18:29;;;;;;;;;;;;;;;29.26;30.33;102748.53;5083432;28;20439;-86
2022/08/06 09:20:54;;;;;;;;;;;;;;;28.68;31.01;102747.25;5082019;28;19920;-86
2022/08/06 09:23:20;;;;;;;;;;;;;;;29.71;30.38;102749.00;5062259;28;20398;-87
2022/08/06 09:25:52;;;;;;;;;;;;;;;30.49;28.38;102745.28;5060166;28;19922;-86
2022/08/06 09:28:26;;;;;;;;;;;;;;;30.68;27.73;102744.41;5083782;28;19924;-86
2022/08/06 09:30:58;;;;;;;;;;;;;;;30.80;27.89;102736.91;5065780;28;19981;-86
2022/08/06 09:33:23;;;;;;;;;;;;;;;31.08;27.10;102743.28;5088581;28;19960;-85
2022/08/06 09:35:56;;;;;;;;;;;;;;;31.03;27.07;102742.88;5086809;28;20398;-85
2022/08/06 09:38:22;;;;;;;;;;;;;;;31.21;27.02;102740.22;5083394;28;20371;-86
2022/08/06 09:41:04;;;;;;;;;;;;;;;31.32;26.61;102744.63;5059076;28;19920;-86
2022/08/06 09:43:29;;;;;;;;;;;;;;;31.45;28.00;102739.69;5082361;28;19955;-86
2022/08/06 09:45:54;;;;;;;;;;;;;;;31.07;28.27;102754.38;5058367;28;20434;-86
2022/08/06 09:48:20;;;;;;;;;;;;;;;30.56;28.39;102756.50;5081724;28;19920;-87
2022/08/06 09:50:46;;;;;;;;;;;;;;;30.63;28.87;102751.28;5061264;28;20022;-86
2022/08/06 09:53:13;;;;;;;;;;;;;;;30.44;28.65;102753.03;5058501;28;19939;-87
2022/08/06 09:55:39;;;;;;;;;;;;;;;30.32;28.45;102756.94;5062850;28;19931;-86
2022/08/06 09:58:05;;;;;;;;;;;;;;;30.07;28.87;102752.03;5076968;28;19916;-86
2022/08/06 10:00:31;;;;;;;;;;;;;;;29.71;27.36;102749.84;5060317;28;20023;-86
2022/08/06 10:03:18;;;;;;;;;;;;;;;28.92;29.10;102752.38;5071944;28;20352;-85
2022/08/06 10:05:44;;;;;;;;;;;;;;;28.79;29.03;102748.16;5052737;28;20424;-86
2022/08/06 10:08:14;;;;;;;;;;;;;;;29.07;29.56;102752.06;5079470;28;19923;-87
2022/08/06 10:10:43;;;;;;;;;;;;;;;28.95;29.81;102757.56;5078739;28;19920;-87
2022/08/06 10:13:26;;;;;;;;;;;;;;;29.07;29.33;102750.19;5079422;28;21457;-86
2022/08/06 10:15:53;;;;;;;;;;;;;;;29.06;28.53;102743.03;5074786;28;19924;-86
2022/08/06 10:18:30;;;;;;;;;;;;;;;29.29;28.55;102740.09;5074534;28;19916;-86
2022/08/06 10:21:02;;;;;;;;;;;;;;;29.40;28.21;102746.28;5078526;28;19920;-86
2022/08/06 10:23:30;;;;;;;;;;;;;;;28.98;29.08;102740.13;5081154;28;19916;-86
2022/08/06 10:25:55;;;;;;;;;;;;;;;28.70;28.52;102747.94;5076847;28;20227;-86
2022/08/06 10:28:23;;;;;;;;;;;;;;;28.52;29.32;102733.22;5077584;28;20311;-86
2022/08/06 10:30:48;;;;;;;;;;;;;;;28.70;28.35;102737.06;5070688;28;19924;-86
2022/08/06 10:33:14;;;;;;;;;;;;;;;29.15;28.71;102735.91;5081957;28;19923;-86
2022/08/06 10:35:41;;;;;;;;;;;;;;;29.45;27.72;102733.09;5081609;28;20402;-86
2022/08/06 10:38:08;;;;;;;;;;;;;;;29.94;28.23;102733.25;5084043;28;19962;-85
2022/08/06 10:40:35;;;;;;;;;;;;;;;30.05;27.69;102724.03;5085390;28;19917;-86
2022/08/06 10:43:03;;;;;;;;;;;;;;;29.95;27.58;102730.34;5078122;28;19924;-85
2022/08/06 10:45:28;;;;;;;;;;;;;;;29.62;27.42;102720.72;5055693;28;19931;-86
2022/08/06 10:47:54;;;;;;;;;;;;;;;29.60;27.87;102719.97;5064554;28;20189;-86
2022/08/06 10:50:19;;;;;;;;;;;;;;;29.74;26.74;102719.56;5082719;28;20006;-86
2022/08/06 10:52:46;;;;;;;;;;;;;;;29.66;26.73;102710.41;5073027;28;20488;-86
2022/08/06 10:55:11;;;;;;;;;;;;;;;29.48;26.67;102713.75;5073394;28;19923;-85
2022/08/06 10:57:38;;;;;;;;;;;;;;;28.84;27.36;102716.78;5076672;28;19908;-85
2022/08/06 11:00:06;;;;;;;;;;;;;;;28.87;27.42;102721.13;5082583;28;19917;-85
2022/08/06 11:02:40;;;;;;;;;;;;;;;29.11;27.24;102712.66;5082107;28;19916;-85
2022/08/06 11:05:11;;;;;;;;;;;;;;;29.77;25.84;102714.84;5083210;28;19915;-86
2022/08/06 11:07:39;;;;;;;;;;;;;;;30.08;26.67;102715.56;5082821;28;19916;-85
2022/08/06 11:10:07;;;;;;;;;;;;;;;30.31;26.00;102719.75;5089751;28;19916;-85
2022/08/06 11:12:32;;;;;;;;;;;;;;;29.95;25.99;102714.00;5089103;28;20367;-86
2022/08/06 11:14:58;;;;;;;;;;;;;;;29.96;25.59;102714.84;5080839;28;19977;-85
2022/08/06 11:17:24;;;;;;;;;;;;;;;29.80;26.08;102706.34;5076641;28;19952;-85
2022/08/06 11:19:52;;;;;;;;;;;;;;;30.04;26.08;102716.88;5079556;28;19923;-85
2022/08/06 11:22:32;;;;;;;;;;;;;;;30.19;24.73;102713.59;5081125;28;19978;-85
2022/08/06 11:24:57;;;;;;;;;;;;;;;30.16;24.20;102710.28;5079627;28;19922;-85
2022/08/06 11:27:41;;;;;;;;;;;;;;;30.37;25.99;102707.38;5077582;28;20010;-86
2022/08/06 11:30:08;;;;;;;;;;;;;;;30.81;25.38;102705.00;5078310;28;20386;-85
2022/08/06 11:32:43;;;;;;;;;;;;;;;31.02;24.06;102713.84;5078478;28;19966;-85
2022/08/06 11:35:27;;;;;;;;;;;;;;;31.29;24.92;102702.09;5082934;28;19915;-85
2022/08/06 11:37:52;;;;;;;;;;;;;;;31.16;24.39;102699.66;5087938;28;20031;-85
2022/08/06 11:40:18;;;;;;;;;;;;;;;31.35;24.51;102698.72;5085747;28;20007;-85
2022/08/06 11:42:44;;;;;;;;;;;;;;;31.52;24.71;102698.91;5082062;28;20029;-86
2022/08/06 11:45:10;;;;;;;;;;;;;;;31.53;22.99;102698.75;5085055;28;20344;-88
2022/08/06 11:47:57;;;;;;;;;;;;;;;31.43;22.83;102696.09;5086256;28;19924;-89
2022/08/06 11:50:23;;;;;;;;;;;;;;;31.21;23.71;102700.06;5081510;28;19916;-88
2022/08/06 11:52:48;;;;;;;;;;;;;;;31.03;24.14;102699.16;5082694;28;19931;-88
2022/08/06 11:55:15;;;;;;;;;;;;;;;31.46;24.36;102689.44;5089300;28;20673;-87
2022/08/06 11:57:40;;;;;;;;;;;;;;;31.36;22.82;102700.44;5088602;28;19956;-89
2022/08/06 12:00:08;;;;;;;;;;;;;;;30.70;21.80;102689.63;5072620;28;20552;-87
2022/08/06 12:02:41;;;;;;;;;;;;;;;30.47;23.83;102687.25;5069640;28;20023;-87
2022/08/06 12:05:06;;;;;;;;;;;;;;;30.69;24.67;102687.91;5087380;28;20321;-87
2022/08/06 12:07:34;;;;;;;;;;;;;;;31.02;23.83;102693.84;5069549;28;19931;-87
2022/08/06 12:10:09;;;;;;;;;;;;;;;30.74;21.34;102670.09;5083767;28;19974;-87
2022/08/06 12:12:38;;;;;;;;;;;;;;;30.55;22.62;102678.31;5082591;28;20031;-87
2022/08/06 12:15:03;;;;;;;;;;;;;;;30.95;22.38;102678.03;5062466;28;19916;-87
2022/08/06 12:17:29;;;;;;;;;;;;;;;31.24;21.13;102680.66;5083303;28;19926;-87
2022/08/06 12:19:57;;;;;;;;;;;;;;;31.35;23.03;102670.53;5064984;28;19924;-88
2022/08/06 12:22:23;;;;;;;;;;;;;;;31.52;22.07;102674.28;5086813;28;19916;-87
2022/08/06 12:24:49;;;;;;;;;;;;;;;31.62;22.20;102672.38;5084383;28;19924;-87
2022/08/06 12:27:15;;;;;;;;;;;;;;;31.60;22.11;102667.03;5069494;28;19959;-88
2022/08/06 12:29:42;;;;;;;;;;;;;;;31.62;21.01;102664.16;5084185;28;19931;-88
2022/08/06 12:32:22;;;;;;;;;;;;;;;31.84;22.78;102671.91;5063787;28;19916;-88
2022/08/06 12:34:48;;;;;;;;;;;;;;;32.07;20.25;102660.47;5082809;28;19935;-88
2022/08/06 12:37:14;;;;;;;;;;;;;;;32.02;21.95;102654.63;5084298;28;20313;-88
2022/08/06 12:42:24;;;;;;;;;;;;;;;32.18;21.20;102654.75;5088503;28;20363;-88
2022/08/06 12:44:49;;;;;;;;;;;;;;;32.14;22.40;102646.00;5087373;28;19924;-87